createdAt,value
2018-12-21T00:00:55.167Z,89.27
2018-12-21T00:05:59.472Z,89.00
2018-12-21T00:11:03.872Z,89.10
2018-12-21T00:16:08.870Z,89.32
2018-12-21T00:21:21.515Z,88.76
2018-12-21T00:26:19.372Z,88.73
2018-12-21T00:31:28.722Z,88.88
2018-12-21T00:36:38.584Z,88.82
2018-12-21T00:41:41.995Z,88.82
2018-12-21T00:46:51.406Z,89.18
2018-12-21T00:52:00.585Z,89.63
2018-12-21T00:57:04.790Z,89.42
2018-12-21T01:02:09.354Z,89.60
2018-12-21T01:07:13.966Z,91.27
2018-12-21T01:12:18.862Z,92.01
2018-12-21T01:17:23.484Z,93.19
2018-12-21T01:22:28.295Z,94.27
2018-12-21T01:27:33.064Z,95.36
2018-12-21T01:32:37.478Z,96.19
2018-12-21T01:37:42.077Z,97.33
2018-12-21T01:42:46.514Z,97.61
2018-12-21T01:47:51.676Z,97.95
2018-12-21T01:52:55.885Z,98.15
2018-12-21T01:58:00.106Z,97.83
2018-12-21T02:03:04.530Z,98.15
2018-12-21T02:08:08.906Z,98.57
2018-12-21T02:13:14.122Z,99.25
2018-12-21T02:18:19.293Z,98.96
2018-12-21T02:23:24.121Z,99.76
2018-12-21T02:28:28.555Z,99.87
2018-12-21T02:33:32.845Z,100.00
2018-12-21T02:38:37.186Z,100.00
2018-12-21T02:43:41.468Z,100.00
2018-12-21T02:48:46.879Z,100.00
2018-12-21T02:53:56.377Z,100.00
2018-12-21T02:59:00.843Z,100.00
2018-12-21T03:04:14.875Z,100.00
2018-12-21T03:09:19.168Z,100.00
2018-12-21T03:14:28.541Z,100.00
2018-12-21T03:19:32.721Z,100.00
2018-12-21T03:24:37.068Z,100.00
2018-12-21T03:29:41.666Z,100.00
2018-12-21T03:34:45.820Z,100.00
2018-12-21T03:39:50.051Z,100.00
2018-12-21T03:44:54.425Z,99.95
2018-12-21T03:49:58.615Z,99.27
2018-12-21T03:55:02.895Z,99.12
2018-12-21T04:00:08.487Z,99.06
2018-12-21T04:05:12.940Z,98.77
2018-12-21T04:10:17.215Z,98.37
2018-12-21T04:15:21.547Z,97.96
2018-12-21T04:20:25.727Z,98.22
2018-12-21T04:25:39.433Z,97.11
2018-12-21T04:30:43.926Z,96.82
2018-12-21T04:35:49.481Z,96.42
2018-12-21T04:40:53.728Z,95.58
2018-12-21T04:45:58.067Z,95.89
2018-12-21T04:51:03.292Z,95.60
2018-12-21T04:56:07.491Z,94.99
2018-12-21T05:01:11.772Z,94.77
2018-12-21T05:06:16.078Z,94.07
2018-12-21T05:11:20.779Z,93.48
2018-12-21T05:16:24.993Z,93.18
2018-12-21T05:21:29.186Z,92.53
2018-12-21T05:26:33.395Z,92.34
2018-12-21T05:31:37.672Z,92.51
2018-12-21T05:36:41.784Z,91.96
2018-12-21T05:41:47.798Z,91.82
2018-12-21T05:46:52.282Z,91.33
2018-12-21T05:51:56.561Z,91.78
2018-12-21T05:57:00.801Z,91.13
2018-12-21T06:02:05.517Z,91.33
2018-12-21T06:07:10.020Z,91.10
2018-12-21T06:12:16.058Z,91.80
2018-12-21T06:17:20.641Z,91.43
2018-12-21T06:22:24.871Z,91.31
2018-12-21T06:27:30.069Z,91.29
2018-12-21T06:32:34.511Z,91.04
2018-12-21T06:37:38.889Z,90.80
2018-12-21T06:42:43.177Z,90.62
2018-12-21T06:47:47.555Z,90.35
2018-12-21T06:52:52.240Z,90.84
2018-12-21T06:57:56.662Z,91.03
2018-12-21T07:03:01.397Z,90.79
2018-12-21T07:08:05.873Z,90.48
2018-12-21T07:13:10.478Z,90.37
2018-12-21T07:18:15.195Z,90.38
2018-12-21T07:23:29.103Z,90.40
2018-12-21T07:28:33.593Z,89.88
2018-12-21T07:33:38.131Z,90.14
2018-12-21T07:38:42.563Z,89.61
2018-12-21T07:43:47.117Z,89.05
2018-12-21T07:48:51.522Z,88.91
2018-12-21T07:53:55.837Z,89.33
2018-12-21T07:59:00.306Z,88.91
2018-12-21T08:04:04.630Z,88.87
2018-12-21T08:09:09.054Z,88.98
2018-12-21T08:14:13.246Z,88.61
2018-12-21T08:19:17.804Z,88.72
2018-12-21T08:24:22.186Z,88.48
2018-12-21T08:29:26.856Z,88.16
2018-12-21T08:34:31.354Z,88.08
2018-12-21T08:39:35.708Z,87.96
2018-12-21T08:44:40.210Z,88.05
2018-12-21T08:49:44.768Z,88.35
2018-12-21T08:54:49.248Z,88.88
2018-12-21T08:59:54.467Z,88.81
2018-12-21T09:04:59.370Z,89.42
2018-12-21T09:10:03.662Z,89.30
2018-12-21T09:15:12.135Z,89.78
2018-12-21T09:20:16.794Z,90.75
2018-12-21T09:25:21.307Z,91.68
2018-12-21T09:30:25.674Z,91.40
2018-12-21T09:35:30.273Z,91.49
2018-12-21T09:40:35.165Z,91.06
2018-12-21T09:45:40.797Z,90.50
2018-12-21T09:50:45.295Z,90.05
2018-12-21T09:55:49.808Z,89.18
2018-12-21T10:00:59.057Z,88.21
2018-12-21T10:06:03.437Z,88.00
2018-12-21T10:11:07.849Z,87.60
2018-12-21T10:16:12.565Z,87.92
2018-12-21T10:21:21.974Z,88.37
2018-12-21T10:26:26.481Z,89.24
2018-12-21T10:31:30.961Z,89.32
2018-12-21T10:36:35.479Z,89.85
2018-12-21T10:41:39.936Z,90.16
2018-12-21T10:46:44.244Z,90.71
2018-12-21T10:51:48.652Z,91.72
2018-12-21T10:56:53.028Z,92.23
2018-12-21T11:01:57.428Z,93.41
2018-12-21T11:07:01.778Z,93.68
2018-12-21T11:12:07.267Z,94.26
2018-12-21T11:17:12.103Z,93.98
2018-12-21T11:22:18.036Z,95.16
2018-12-21T11:27:22.993Z,95.50
2018-12-21T11:32:27.667Z,96.15
2018-12-21T11:37:32.759Z,97.17
2018-12-21T11:42:43.092Z,97.70
2018-12-21T11:47:47.685Z,98.01
2018-12-21T11:52:52.534Z,98.36
2018-12-21T11:57:56.845Z,99.28
2018-12-21T12:03:01.210Z,99.68
2018-12-21T12:08:05.857Z,99.85
2018-12-21T12:13:10.171Z,100.00
2018-12-21T12:18:14.524Z,100.00
2018-12-21T12:23:19.006Z,100.00
2018-12-21T12:28:23.515Z,100.00
2018-12-21T12:33:28.277Z,100.00
2018-12-21T12:38:32.788Z,100.00
2018-12-21T12:43:37.321Z,100.00
2018-12-21T12:48:43.127Z,100.00
2018-12-21T12:53:47.436Z,100.00
2018-12-21T12:58:52.062Z,100.00
2018-12-21T13:03:56.738Z,100.00
2018-12-21T13:09:01.156Z,100.00
2018-12-21T13:14:14.098Z,100.00
2018-12-21T13:19:19.488Z,100.00
2018-12-21T13:24:23.870Z,100.00
2018-12-21T13:29:28.766Z,100.00
2018-12-21T13:34:33.309Z,100.00
2018-12-21T13:39:38.116Z,100.00
2018-12-21T13:44:48.123Z,100.00
2018-12-21T13:49:52.878Z,100.00
2018-12-21T13:54:58.707Z,100.00
2018-12-21T14:00:03.087Z,100.00
2018-12-21T14:05:12.435Z,100.00
2018-12-21T14:10:16.987Z,100.00
2018-12-21T14:15:21.459Z,100.00
2018-12-21T14:20:26.203Z,100.00
2018-12-21T14:25:30.886Z,100.00
2018-12-21T14:30:35.399Z,100.00
2018-12-21T14:35:40.709Z,100.00
2018-12-21T14:40:45.342Z,100.00
2018-12-21T14:45:49.687Z,100.00
2018-12-21T14:50:54.318Z,100.00
2018-12-21T14:55:59.061Z,100.00
2018-12-21T15:01:04.457Z,100.00
2018-12-21T15:06:09.009Z,98.90
2018-12-21T15:11:13.232Z,97.83
2018-12-21T15:16:17.744Z,97.47
2018-12-21T15:21:22.097Z,97.35
2018-12-21T15:26:26.605Z,97.67
2018-12-21T15:31:37.173Z,98.13
2018-12-21T15:36:41.676Z,97.85
2018-12-21T15:41:46.801Z,98.22
2018-12-21T15:46:51.175Z,97.80
2018-12-21T15:51:55.952Z,97.71
2018-12-21T15:57:00.443Z,98.27
2018-12-21T16:02:05.091Z,98.36
2018-12-21T16:07:10.077Z,98.32
2018-12-21T16:12:15.239Z,98.05
2018-12-21T16:17:21.625Z,97.83
2018-12-21T16:22:28.097Z,97.14
2018-12-21T16:27:33.541Z,96.70
2018-12-21T16:32:46.915Z,96.38
2018-12-21T16:37:52.207Z,96.73
2018-12-21T16:42:56.565Z,96.88
2018-12-21T16:48:01.609Z,96.09
2018-12-21T16:53:05.950Z,95.95
2018-12-21T16:58:10.627Z,96.37
2018-12-21T17:03:16.047Z,96.14
2018-12-21T17:08:20.275Z,96.37
2018-12-21T17:13:24.635Z,96.01
2018-12-21T17:18:29.568Z,96.89
2018-12-21T17:23:35.144Z,96.98
2018-12-21T17:28:39.789Z,97.04
2018-12-21T17:33:44.753Z,97.18
2018-12-21T17:38:49.512Z,97.72
2018-12-21T17:43:54.005Z,97.35
2018-12-21T17:48:58.511Z,96.41
2018-12-21T17:54:04.812Z,96.76
2018-12-21T17:59:09.411Z,96.05
2018-12-21T18:04:24.349Z,96.10
2018-12-21T18:09:33.667Z,95.95
2018-12-21T18:14:38.625Z,95.12
2018-12-21T18:19:43.792Z,95.19
2018-12-21T18:24:53.965Z,94.87
2018-12-21T18:29:58.627Z,94.01
2018-12-21T18:35:05.222Z,93.07
2018-12-21T18:40:10.547Z,92.64
2018-12-21T18:45:15.137Z,92.69
2018-12-21T18:50:19.591Z,92.70
2018-12-21T18:55:24.136Z,92.81
2018-12-21T19:00:29.363Z,92.40
2018-12-21T19:05:34.021Z,92.23
2018-12-21T19:10:39.896Z,92.42
2018-12-21T19:15:44.558Z,92.22
2018-12-21T19:20:48.936Z,93.40
2018-12-21T19:25:54.361Z,93.83
2018-12-21T19:30:59.162Z,93.80
2018-12-21T19:36:05.038Z,94.30
2018-12-21T19:41:11.833Z,94.53
2018-12-21T19:46:16.397Z,94.47
2018-12-21T19:51:21.288Z,96.23
2018-12-21T19:56:43.517Z,95.36
2018-12-21T20:01:53.629Z,96.51
2018-12-21T20:06:58.333Z,98.13
2018-12-21T20:12:03.197Z,96.63
2018-12-21T20:17:10.737Z,92.91
2018-12-21T20:22:15.416Z,84.91
2018-12-21T20:27:20.175Z,82.15
2018-12-21T20:32:25.007Z,79.67
2018-12-21T20:37:29.424Z,78.09
2018-12-21T20:42:35.250Z,76.42
2018-12-21T20:47:40.069Z,75.73
2018-12-21T20:52:46.164Z,75.59
2018-12-21T20:57:53.189Z,75.31
2018-12-21T21:03:02.899Z,75.73
2018-12-21T21:08:07.465Z,75.41
2018-12-21T21:13:19.270Z,76.11
2018-12-21T21:18:19.523Z,75.41
2018-12-21T21:23:24.512Z,74.97
2018-12-21T21:28:29.344Z,74.27
2018-12-21T21:33:35.279Z,74.84
2018-12-21T21:38:40.216Z,76.18
2018-12-21T21:43:44.899Z,77.83
2018-12-21T21:48:49.530Z,79.08
2018-12-21T21:53:56.112Z,79.02
2018-12-21T21:59:00.953Z,78.86
2018-12-21T22:04:05.841Z,80.55
2018-12-21T22:09:10.658Z,81.56
2018-12-21T22:14:14.875Z,81.31
2018-12-21T22:19:19.357Z,82.48
2018-12-21T22:24:23.969Z,83.26
2018-12-21T22:29:28.552Z,83.79
2018-12-21T22:34:35.138Z,85.35
2018-12-21T22:39:40.926Z,85.44
2018-12-21T22:44:45.241Z,81.25
2018-12-21T22:49:50.003Z,79.30
2018-12-21T22:54:54.589Z,78.06
2018-12-21T23:00:00.314Z,77.59
2018-12-21T23:05:05.038Z,77.67
2018-12-21T23:10:09.423Z,77.70
2018-12-21T23:15:13.671Z,77.46
2018-12-21T23:20:19.421Z,75.06
2018-12-21T23:25:24.889Z,75.10
2018-12-21T23:30:29.377Z,74.69
2018-12-21T23:35:33.850Z,74.17
2018-12-21T23:40:38.448Z,74.28
2018-12-21T23:45:43.036Z,73.89
2018-12-21T23:50:47.432Z,74.13
2018-12-21T23:55:51.683Z,74.62
